sensor_id;sensor_type;location;lat;lon;timestamp;temperature;humidity
74923;HTU21D;64715;44.760;37.678;2024-03-17T00:00:25;5.84;69.77
74923;HTU21D;64715;44.760;37.678;2024-03-17T00:01:26;5.85;69.67
74923;HTU21D;64715;44.760;37.678;2024-03-17T00:02:26;5.83;69.90
74923;HTU21D;64715;44.760;37.678;2024-03-17T00:03:28;5.86;69.82
74923;HTU21D;64715;44.760;37.678;2024-03-17T00:04:29;5.84;69.69
74923;HTU21D;64715;44.760;37.678;2024-03-17T00:05:30;5.84;69.74
74923;HTU21D;64715;44.760;37.678;2024-03-17T00:06:31;5.83;69.78
74923;HTU21D;64715;44.760;37.678;2024-03-17T00:07:32;5.83;69.78
74923;HTU21D;64715;44.760;37.678;2024-03-17T00:08:33;5.81;69.88
74923;HTU21D;64715;44.760;37.678;2024-03-17T00:09:33;5.82;69.84
74923;HTU21D;64715;44.760;37.678;2024-03-17T00:10:34;5.82;69.83
74923;HTU21D;64715;44.760;37.678;2024-03-17T00:11:35;5.82;69.74
74923;HTU21D;64715;44.760;37.678;2024-03-17T00:12:37;5.82;69.83
74923;HTU21D;64715;44.760;37.678;2024-03-17T00:13:38;5.81;69.92
74923;HTU21D;64715;44.760;37.678;2024-03-17T00:14:39;5.82;69.83
74923;HTU21D;64715;44.760;37.678;2024-03-17T00:15:40;5.84;69.97
74923;HTU21D;64715;44.760;37.678;2024-03-17T00:16:41;5.84;69.79
74923;HTU21D;64715;44.760;37.678;2024-03-17T00:17:42;5.83;70.00
74923;HTU21D;64715;44.760;37.678;2024-03-17T00:18:43;5.83;69.89
74923;HTU21D;64715;44.760;37.678;2024-03-17T00:19:44;5.81;70.03
74923;HTU21D;64715;44.760;37.678;2024-03-17T00:20:46;5.81;69.90
74923;HTU21D;64715;44.760;37.678;2024-03-17T00:21:47;5.80;70.06
74923;HTU21D;64715;44.760;37.678;2024-03-17T00:22:49;5.79;69.87
74923;HTU21D;64715;44.760;37.678;2024-03-17T00:23:51;5.79;69.95
74923;HTU21D;64715;44.760;37.678;2024-03-17T00:24:52;5.78;69.91
74923;HTU21D;64715;44.760;37.678;2024-03-17T00:25:55;5.77;69.91
74923;HTU21D;64715;44.760;37.678;2024-03-17T00:26:56;5.76;69.93
74923;HTU21D;64715;44.760;37.678;2024-03-17T00:27:56;5.76;70.03
74923;HTU21D;64715;44.760;37.678;2024-03-17T00:28:58;5.75;69.95
74923;HTU21D;64715;44.760;37.678;2024-03-17T00:29:59;5.75;69.99
74923;HTU21D;64715;44.760;37.678;2024-03-17T00:31:03;5.75;70.13
74923;HTU21D;64715;44.760;37.678;2024-03-17T00:32:05;5.74;70.09
74923;HTU21D;64715;44.760;37.678;2024-03-17T00:33:06;5.74;69.86
74923;HTU21D;64715;44.760;37.678;2024-03-17T00:34:08;5.75;70.12
74923;HTU21D;64715;44.760;37.678;2024-03-17T00:35:10;5.71;70.10
74923;HTU21D;64715;44.760;37.678;2024-03-17T00:36:14;5.72;70.10
74923;HTU21D;64715;44.760;37.678;2024-03-17T00:37:16;5.71;70.15
74923;HTU21D;64715;44.760;37.678;2024-03-17T00:38:18;5.74;70.29
74923;HTU21D;64715;44.760;37.678;2024-03-17T00:39:19;5.71;70.20
74923;HTU21D;64715;44.760;37.678;2024-03-17T00:40:20;5.70;69.97
74923;HTU21D;64715;44.760;37.678;2024-03-17T00:41:21;5.69;70.09
74923;HTU21D;64715;44.760;37.678;2024-03-17T00:42:22;5.69;70.13
74923;HTU21D;64715;44.760;37.678;2024-03-17T00:43:23;5.66;70.24
74923;HTU21D;64715;44.760;37.678;2024-03-17T00:44:24;5.66;70.24
74923;HTU21D;64715;44.760;37.678;2024-03-17T00:45:25;5.65;70.13
74923;HTU21D;64715;44.760;37.678;2024-03-17T00:46:26;5.62;70.14
74923;HTU21D;64715;44.760;37.678;2024-03-17T00:47:27;5.60;70.05
74923;HTU21D;64715;44.760;37.678;2024-03-17T00:48:28;5.57;70.13
74923;HTU21D;64715;44.760;37.678;2024-03-17T00:49:29;5.57;69.90
74923;HTU21D;64715;44.760;37.678;2024-03-17T00:50:30;5.53;70.06
74923;HTU21D;64715;44.760;37.678;2024-03-17T00:51:32;5.51;70.05
74923;HTU21D;64715;44.760;37.678;2024-03-17T00:52:32;5.50;69.97
74923;HTU21D;64715;44.760;37.678;2024-03-17T00:53:34;5.47;70.00
74923;HTU21D;64715;44.760;37.678;2024-03-17T00:54:35;5.45;70.08
74923;HTU21D;64715;44.760;37.678;2024-03-17T00:55:37;5.43;69.98
74923;HTU21D;64715;44.760;37.678;2024-03-17T00:56:38;5.41;70.07
74923;HTU21D;64715;44.760;37.678;2024-03-17T00:57:41;5.39;70.14
74923;HTU21D;64715;44.760;37.678;2024-03-17T00:58:42;5.37;70.16
74923;HTU21D;64715;44.760;37.678;2024-03-17T00:59:45;5.35;69.90
74923;HTU21D;64715;44.760;37.678;2024-03-17T01:00:46;5.34;69.90
74923;HTU21D;64715;44.760;37.678;2024-03-17T01:01:48;5.31;69.90
74923;HTU21D;64715;44.760;37.678;2024-03-17T01:02:49;5.31;70.19
74923;HTU21D;64715;44.760;37.678;2024-03-17T01:03:50;5.30;70.17
74923;HTU21D;64715;44.760;37.678;2024-03-17T01:04:52;5.30;70.17
74923;HTU21D;64715;44.760;37.678;2024-03-17T01:05:53;5.28;70.30
74923;HTU21D;64715;44.760;37.678;2024-03-17T01:06:54;5.30;70.19
74923;HTU21D;64715;44.760;37.678;2024-03-17T01:07:56;5.27;70.19
74923;HTU21D;64715;44.760;37.678;2024-03-17T01:08:57;5.27;70.26
74923;HTU21D;64715;44.760;37.678;2024-03-17T01:09:58;5.26;70.36
74923;HTU21D;64715;44.760;37.678;2024-03-17T01:10:59;5.27;70.26
74923;HTU21D;64715;44.760;37.678;2024-03-17T01:12:00;5.25;70.32
74923;HTU21D;64715;44.760;37.678;2024-03-17T01:13:02;5.27;70.42
74923;HTU21D;64715;44.760;37.678;2024-03-17T01:14:04;5.25;70.61
74923;HTU21D;64715;44.760;37.678;2024-03-17T01:15:06;5.27;70.44
74923;HTU21D;64715;44.760;37.678;2024-03-17T01:16:07;5.25;70.42
74923;HTU21D;64715;44.760;37.678;2024-03-17T01:17:08;5.26;70.57
74923;HTU21D;64715;44.760;37.678;2024-03-17T01:18:09;5.27;70.48
74923;HTU21D;64715;44.760;37.678;2024-03-17T01:19:12;5.26;70.68
74923;HTU21D;64715;44.760;37.678;2024-03-17T01:20:13;5.27;70.54
74923;HTU21D;64715;44.760;37.678;2024-03-17T01:21:16;5.27;70.52
74923;HTU21D;64715;44.760;37.678;2024-03-17T01:22:18;5.26;70.45
74923;HTU21D;64715;44.760;37.678;2024-03-17T01:23:19;5.25;70.53
74923;HTU21D;64715;44.760;37.678;2024-03-17T01:24:21;5.24;70.74
74923;HTU21D;64715;44.760;37.678;2024-03-17T01:25:23;5.24;70.44
74923;HTU21D;64715;44.760;37.678;2024-03-17T01:26:26;5.25;70.63
74923;HTU21D;64715;44.760;37.678;2024-03-17T01:27:29;5.23;70.55
74923;HTU21D;64715;44.760;37.678;2024-03-17T01:28:30;5.21;70.36
74923;HTU21D;64715;44.760;37.678;2024-03-17T01:29:31;5.20;70.64
74923;HTU21D;64715;44.760;37.678;2024-03-17T01:30:33;5.21;70.64
74923;HTU21D;64715;44.760;37.678;2024-03-17T01:31:35;5.20;70.77
74923;HTU21D;64715;44.760;37.678;2024-03-17T01:32:36;5.20;70.76
74923;HTU21D;64715;44.760;37.678;2024-03-17T01:33:38;5.20;70.74
74923;HTU21D;64715;44.760;37.678;2024-03-17T01:34:39;5.18;70.74
74923;HTU21D;64715;44.760;37.678;2024-03-17T01:35:43;5.19;70.82
74923;HTU21D;64715;44.760;37.678;2024-03-17T01:36:44;5.19;70.56
74923;HTU21D;64715;44.760;37.678;2024-03-17T01:37:46;5.21;70.77
74923;HTU21D;64715;44.760;37.678;2024-03-17T01:38:47;5.20;70.87
74923;HTU21D;64715;44.760;37.678;2024-03-17T01:39:48;5.21;70.90
74923;HTU21D;64715;44.760;37.678;2024-03-17T01:40:51;5.21;71.00
74923;HTU21D;64715;44.760;37.678;2024-03-17T01:41:52;5.21;70.76
74923;HTU21D;64715;44.760;37.678;2024-03-17T01:42:53;5.21;70.85
74923;HTU21D;64715;44.760;37.678;2024-03-17T01:43:54;5.22;70.89
74923;HTU21D;64715;44.760;37.678;2024-03-17T01:44:55;5.22;70.85
74923;HTU21D;64715;44.760;37.678;2024-03-17T01:45:57;5.24;70.84
74923;HTU21D;64715;44.760;37.678;2024-03-17T01:46:59;5.23;70.82
74923;HTU21D;64715;44.760;37.678;2024-03-17T01:48:02;5.23;70.90
74923;HTU21D;64715;44.760;37.678;2024-03-17T01:49:03;5.24;70.85
74923;HTU21D;64715;44.760;37.678;2024-03-17T01:50:05;5.25;70.84
74923;HTU21D;64715;44.760;37.678;2024-03-17T01:51:10;5.24;70.83
74923;HTU21D;64715;44.760;37.678;2024-03-17T01:52:11;5.22;70.92
74923;HTU21D;64715;44.760;37.678;2024-03-17T01:53:13;5.23;70.89
74923;HTU21D;64715;44.760;37.678;2024-03-17T01:54:15;5.22;70.74
74923;HTU21D;64715;44.760;37.678;2024-03-17T01:55:17;5.21;70.99
74923;HTU21D;64715;44.760;37.678;2024-03-17T01:56:19;5.18;70.90
74923;HTU21D;64715;44.760;37.678;2024-03-17T01:57:20;5.19;71.07
74923;HTU21D;64715;44.760;37.678;2024-03-17T01:58:24;5.17;70.92
74923;HTU21D;64715;44.760;37.678;2024-03-17T01:59:26;5.16;70.77
74923;HTU21D;64715;44.760;37.678;2024-03-17T02:00:27;5.13;70.91
74923;HTU21D;64715;44.760;37.678;2024-03-17T02:01:29;5.11;70.94
74923;HTU21D;64715;44.760;37.678;2024-03-17T02:02:31;5.10;70.75
74923;HTU21D;64715;44.760;37.678;2024-03-17T02:03:32;5.09;70.87
74923;HTU21D;64715;44.760;37.678;2024-03-17T02:04:33;5.07;70.78
74923;HTU21D;64715;44.760;37.678;2024-03-17T02:05:35;5.06;70.96
74923;HTU21D;64715;44.760;37.678;2024-03-17T02:06:38;5.03;70.82
74923;HTU21D;64715;44.760;37.678;2024-03-17T02:07:40;5.01;70.87
74923;HTU21D;64715;44.760;37.678;2024-03-17T02:08:48;4.98;70.86
74923;HTU21D;64715;44.760;37.678;2024-03-17T02:09:49;4.97;70.74
74923;HTU21D;64715;44.760;37.678;2024-03-17T02:10:54;4.96;71.00
74923;HTU21D;64715;44.760;37.678;2024-03-17T02:11:55;4.98;70.89
74923;HTU21D;64715;44.760;37.678;2024-03-17T02:12:56;4.98;71.15
74923;HTU21D;64715;44.760;37.678;2024-03-17T02:13:59;4.98;70.97
74923;HTU21D;64715;44.760;37.678;2024-03-17T02:15:00;5.01;71.02
74923;HTU21D;64715;44.760;37.678;2024-03-17T02:16:01;5.00;71.20
74923;HTU21D;64715;44.760;37.678;2024-03-17T02:17:02;5.02;71.16
74923;HTU21D;64715;44.760;37.678;2024-03-17T02:18:04;5.03;71.06
74923;HTU21D;64715;44.760;37.678;2024-03-17T02:19:05;5.03;71.37
74923;HTU21D;64715;44.760;37.678;2024-03-17T02:20:07;5.05;71.29
74923;HTU21D;64715;44.760;37.678;2024-03-17T02:21:08;5.05;71.12
74923;HTU21D;64715;44.760;37.678;2024-03-17T02:22:16;5.06;71.35
74923;HTU21D;64715;44.760;37.678;2024-03-17T02:23:17;5.06;71.29
74923;HTU21D;64715;44.760;37.678;2024-03-17T02:24:19;5.08;71.31
74923;HTU21D;64715;44.760;37.678;2024-03-17T02:25:20;5.09;71.36
74923;HTU21D;64715;44.760;37.678;2024-03-17T02:26:22;5.09;71.32
74923;HTU21D;64715;44.760;37.678;2024-03-17T02:27:23;5.10;71.49
74923;HTU21D;64715;44.760;37.678;2024-03-17T02:28:24;5.13;71.45
74923;HTU21D;64715;44.760;37.678;2024-03-17T02:29:25;5.13;71.32
74923;HTU21D;64715;44.760;37.678;2024-03-17T02:30:26;5.16;71.50
74923;HTU21D;64715;44.760;37.678;2024-03-17T02:31:27;5.18;71.49
74923;HTU21D;64715;44.760;37.678;2024-03-17T02:32:28;5.17;71.68
74923;HTU21D;64715;44.760;37.678;2024-03-17T02:33:29;5.21;71.63
74923;HTU21D;64715;44.760;37.678;2024-03-17T02:34:30;5.20;71.58
74923;HTU21D;64715;44.760;37.678;2024-03-17T02:35:32;5.22;71.59
74923;HTU21D;64715;44.760;37.678;2024-03-17T02:36:33;5.24;71.52
74923;HTU21D;64715;44.760;37.678;2024-03-17T02:37:34;5.25;71.55
74923;HTU21D;64715;44.760;37.678;2024-03-17T02:38:35;5.25;71.64
74923;HTU21D;64715;44.760;37.678;2024-03-17T02:39:55;5.27;71.66
74923;HTU21D;64715;44.760;37.678;2024-03-17T02:40:56;5.28;71.61
74923;HTU21D;64715;44.760;37.678;2024-03-17T02:41:57;5.27;71.60
74923;HTU21D;64715;44.760;37.678;2024-03-17T02:42:58;5.30;71.67
74923;HTU21D;64715;44.760;37.678;2024-03-17T02:43:59;5.31;71.69
74923;HTU21D;64715;44.760;37.678;2024-03-17T02:45:00;5.30;71.80
74923;HTU21D;64715;44.760;37.678;2024-03-17T02:46:01;5.30;71.79
74923;HTU21D;64715;44.760;37.678;2024-03-17T02:47:05;5.32;71.62
74923;HTU21D;64715;44.760;37.678;2024-03-17T02:48:09;5.32;71.60
74923;HTU21D;64715;44.760;37.678;2024-03-17T02:49:10;5.33;71.83
74923;HTU21D;64715;44.760;37.678;2024-03-17T02:50:14;5.34;71.75
74923;HTU21D;64715;44.760;37.678;2024-03-17T02:51:17;5.34;71.55
74923;HTU21D;64715;44.760;37.678;2024-03-17T02:52:19;5.35;71.61
74923;HTU21D;64715;44.760;37.678;2024-03-17T02:53:20;5.33;71.64
74923;HTU21D;64715;44.760;37.678;2024-03-17T02:54:22;5.32;71.56
74923;HTU21D;64715;44.760;37.678;2024-03-17T02:55:23;5.32;71.71
74923;HTU21D;64715;44.760;37.678;2024-03-17T02:56:24;5.31;71.58
74923;HTU21D;64715;44.760;37.678;2024-03-17T02:57:26;5.32;71.71
74923;HTU21D;64715;44.760;37.678;2024-03-17T02:58:30;5.32;71.83
74923;HTU21D;64715;44.760;37.678;2024-03-17T02:59:31;5.32;71.64
74923;HTU21D;64715;44.760;37.678;2024-03-17T03:00:32;5.33;71.73
74923;HTU21D;64715;44.760;37.678;2024-03-17T03:01:33;5.33;71.62
74923;HTU21D;64715;44.760;37.678;2024-03-17T03:02:33;5.32;71.56
74923;HTU21D;64715;44.760;37.678;2024-03-17T03:03:35;5.32;71.77
74923;HTU21D;64715;44.760;37.678;2024-03-17T03:04:36;5.34;71.68
74923;HTU21D;64715;44.760;37.678;2024-03-17T03:05:38;5.34;71.72
74923;HTU21D;64715;44.760;37.678;2024-03-17T03:06:39;5.32;71.87
74923;HTU21D;64715;44.760;37.678;2024-03-17T03:07:40;5.34;71.80
74923;HTU21D;64715;44.760;37.678;2024-03-17T03:08:41;5.37;71.84
74923;HTU21D;64715;44.760;37.678;2024-03-17T03:09:42;5.37;72.01
74923;HTU21D;64715;44.760;37.678;2024-03-17T03:10:44;5.39;71.81
74923;HTU21D;64715;44.760;37.678;2024-03-17T03:11:46;5.39;71.91
74923;HTU21D;64715;44.760;37.678;2024-03-17T03:12:47;5.42;71.87
74923;HTU21D;64715;44.760;37.678;2024-03-17T03:13:48;5.45;71.84
74923;HTU21D;64715;44.760;37.678;2024-03-17T03:14:49;5.43;72.12
74923;HTU21D;64715;44.760;37.678;2024-03-17T03:15:51;5.46;72.02
74923;HTU21D;64715;44.760;37.678;2024-03-17T03:16:52;5.46;72.01
74923;HTU21D;64715;44.760;37.678;2024-03-17T03:17:53;5.46;71.92
74923;HTU21D;64715;44.760;37.678;2024-03-17T03:18:54;5.45;71.99
74923;HTU21D;64715;44.760;37.678;2024-03-17T03:19:55;5.43;71.84
74923;HTU21D;64715;44.760;37.678;2024-03-17T03:20:56;5.43;72.02
74923;HTU21D;64715;44.760;37.678;2024-03-17T03:21:57;5.46;71.93
74923;HTU21D;64715;44.760;37.678;2024-03-17T03:22:59;5.45;72.04
74923;HTU21D;64715;44.760;37.678;2024-03-17T03:24:00;5.42;71.68
74923;HTU21D;64715;44.760;37.678;2024-03-17T03:25:02;5.43;71.99
74923;HTU21D;64715;44.760;37.678;2024-03-17T03:26:03;5.41;71.91
74923;HTU21D;64715;44.760;37.678;2024-03-17T03:27:05;5.39;71.97
74923;HTU21D;64715;44.760;37.678;2024-03-17T03:28:06;5.40;71.96
74923;HTU21D;64715;44.760;37.678;2024-03-17T03:29:06;5.40;71.90
74923;HTU21D;64715;44.760;37.678;2024-03-17T03:30:08;5.41;71.90
74923;HTU21D;64715;44.760;37.678;2024-03-17T03:31:13;5.41;72.11
74923;HTU21D;64715;44.760;37.678;2024-03-17T03:32:14;5.42;72.05
74923;HTU21D;64715;44.760;37.678;2024-03-17T03:33:15;5.46;72.09
74923;HTU21D;64715;44.760;37.678;2024-03-17T03:34:16;5.47;72.09
74923;HTU21D;64715;44.760;37.678;2024-03-17T03:35:17;5.49;72.03
74923;HTU21D;64715;44.760;37.678;2024-03-17T03:36:18;5.50;72.20
74923;HTU21D;64715;44.760;37.678;2024-03-17T03:37:18;5.51;72.09
74923;HTU21D;64715;44.760;37.678;2024-03-17T03:38:19;5.52;71.91
74923;HTU21D;64715;44.760;37.678;2024-03-17T03:39:20;5.53;72.10
74923;HTU21D;64715;44.760;37.678;2024-03-17T03:40:22;5.54;72.14
74923;HTU21D;64715;44.760;37.678;2024-03-17T03:41:23;5.53;72.22
74923;HTU21D;64715;44.760;37.678;2024-03-17T03:42:25;5.54;72.16
74923;HTU21D;64715;44.760;37.678;2024-03-17T03:43:26;5.55;72.27
74923;HTU21D;64715;44.760;37.678;2024-03-17T03:44:28;5.56;72.10
74923;HTU21D;64715;44.760;37.678;2024-03-17T03:45:29;5.59;72.30
74923;HTU21D;64715;44.760;37.678;2024-03-17T03:46:31;5.59;72.29
74923;HTU21D;64715;44.760;37.678;2024-03-17T03:47:31;5.60;72.06
74923;HTU21D;64715;44.760;37.678;2024-03-17T03:48:33;5.60;72.19
74923;HTU21D;64715;44.760;37.678;2024-03-17T03:49:35;5.62;72.22
74923;HTU21D;64715;44.760;37.678;2024-03-17T03:50:38;5.63;72.34
74923;HTU21D;64715;44.760;37.678;2024-03-17T03:51:39;5.64;72.21
74923;HTU21D;64715;44.760;37.678;2024-03-17T03:52:40;5.64;72.20
74923;HTU21D;64715;44.760;37.678;2024-03-17T03:53:42;5.66;72.27
74923;HTU21D;64715;44.760;37.678;2024-03-17T03:54:43;5.64;72.19
74923;HTU21D;64715;44.760;37.678;2024-03-17T03:55:44;5.66;72.16
74923;HTU21D;64715;44.760;37.678;2024-03-17T03:56:45;5.67;72.19
74923;HTU21D;64715;44.760;37.678;2024-03-17T03:57:46;5.69;72.22
74923;HTU21D;64715;44.760;37.678;2024-03-17T03:58:50;5.68;72.22
74923;HTU21D;64715;44.760;37.678;2024-03-17T03:59:51;5.71;72.27
74923;HTU21D;64715;44.760;37.678;2024-03-17T04:00:52;5.72;72.15
74923;HTU21D;64715;44.760;37.678;2024-03-17T04:01:53;5.75;72.43
74923;HTU21D;64715;44.760;37.678;2024-03-17T04:02:54;5.77;72.22
74923;HTU21D;64715;44.760;37.678;2024-03-17T04:03:55;5.79;72.14
74923;HTU21D;64715;44.760;37.678;2024-03-17T04:04:56;5.81;72.25
74923;HTU21D;64715;44.760;37.678;2024-03-17T04:06:15;5.87;72.53
74923;HTU21D;64715;44.760;37.678;2024-03-17T04:07:17;5.90;72.19
74923;HTU21D;64715;44.760;37.678;2024-03-17T04:08:18;5.95;72.35
74923;HTU21D;64715;44.760;37.678;2024-03-17T04:09:19;5.97;72.38
74923;HTU21D;64715;44.760;37.678;2024-03-17T04:10:21;6.00;72.39
74923;HTU21D;64715;44.760;37.678;2024-03-17T04:11:22;6.05;72.51
74923;HTU21D;64715;44.760;37.678;2024-03-17T04:12:27;6.10;72.45
74923;HTU21D;64715;44.760;37.678;2024-03-17T04:13:29;6.14;72.39
74923;HTU21D;64715;44.760;37.678;2024-03-17T04:14:33;6.19;72.40
74923;HTU21D;64715;44.760;37.678;2024-03-17T04:15:34;6.25;72.52
74923;HTU21D;64715;44.760;37.678;2024-03-17T04:16:35;6.31;72.44
74923;HTU21D;64715;44.760;37.678;2024-03-17T04:17:37;6.36;72.61
74923;HTU21D;64715;44.760;37.678;2024-03-17T04:18:40;6.42;72.49
74923;HTU21D;64715;44.760;37.678;2024-03-17T04:19:41;6.50;72.70
74923;HTU21D;64715;44.760;37.678;2024-03-17T04:20:42;6.58;72.71
74923;HTU21D;64715;44.760;37.678;2024-03-17T04:21:43;6.69;72.70
74923;HTU21D;64715;44.760;37.678;2024-03-17T04:22:44;6.80;72.90
74923;HTU21D;64715;44.760;37.678;2024-03-17T04:23:45;6.89;72.92
74923;HTU21D;64715;44.760;37.678;2024-03-17T04:24:47;6.99;72.84
74923;HTU21D;64715;44.760;37.678;2024-03-17T04:25:51;7.14;73.07
74923;HTU21D;64715;44.760;37.678;2024-03-17T04:26:53;7.28;73.07
74923;HTU21D;64715;44.760;37.678;2024-03-17T04:27:54;7.42;73.06
74923;HTU21D;64715;44.760;37.678;2024-03-17T04:28:55;7.59;72.90
74923;HTU21D;64715;44.760;37.678;2024-03-17T04:29:57;7.74;72.85
74923;HTU21D;64715;44.760;37.678;2024-03-17T04:31:03;7.91;72.91
74923;HTU21D;64715;44.760;37.678;2024-03-17T04:32:05;8.09;72.68
74923;HTU21D;64715;44.760;37.678;2024-03-17T04:33:06;8.30;72.62
74923;HTU21D;64715;44.760;37.678;2024-03-17T04:34:07;8.47;72.47
74923;HTU21D;64715;44.760;37.678;2024-03-17T04:35:08;8.65;72.13
74923;HTU21D;64715;44.760;37.678;2024-03-17T04:36:09;8.77;71.77
74923;HTU21D;64715;44.760;37.678;2024-03-17T04:37:10;8.91;71.70
74923;HTU21D;64715;44.760;37.678;2024-03-17T04:38:14;8.97;71.68
74923;HTU21D;64715;44.760;37.678;2024-03-17T04:39:15;9.06;71.58
74923;HTU21D;64715;44.760;37.678;2024-03-17T04:40:16;9.14;71.58
74923;HTU21D;64715;44.760;37.678;2024-03-17T04:41:17;9.25;71.57
74923;HTU21D;64715;44.760;37.678;2024-03-17T04:42:19;9.39;71.61
74923;HTU21D;64715;44.760;37.678;2024-03-17T04:43:20;9.55;71.44
74923;HTU21D;64715;44.760;37.678;2024-03-17T04:44:21;9.71;71.49
74923;HTU21D;64715;44.760;37.678;2024-03-17T04:45:23;9.91;71.37
74923;HTU21D;64715;44.760;37.678;2024-03-17T04:46:24;10.09;70.98
74923;HTU21D;64715;44.760;37.678;2024-03-17T04:47:26;10.25;71.05
74923;HTU21D;64715;44.760;37.678;2024-03-17T04:48:27;10.45;71.03
74923;HTU21D;64715;44.760;37.678;2024-03-17T04:49:28;10.70;70.83
74923;HTU21D;64715;44.760;37.678;2024-03-17T04:50:29;10.96;70.60
74923;HTU21D;64715;44.760;37.678;2024-03-17T04:51:33;11.25;70.34
74923;HTU21D;64715;44.760;37.678;2024-03-17T04:52:34;11.51;69.82
74923;HTU21D;64715;44.760;37.678;2024-03-17T04:53:35;11.74;69.59
74923;HTU21D;64715;44.760;37.678;2024-03-17T04:54:36;11.98;69.25
74923;HTU21D;64715;44.760;37.678;2024-03-17T04:55:37;12.20;69.07
74923;HTU21D;64715;44.760;37.678;2024-03-17T04:56:38;12.42;68.66
74923;HTU21D;64715;44.760;37.678;2024-03-17T04:57:39;12.59;68.48
74923;HTU21D;64715;44.760;37.678;2024-03-17T04:58:40;12.74;68.23
74923;HTU21D;64715;44.760;37.678;2024-03-17T04:59:41;12.91;68.15
74923;HTU21D;64715;44.760;37.678;2024-03-17T05:00:42;13.11;68.10
74923;HTU21D;64715;44.760;37.678;2024-03-17T05:01:43;13.31;67.71
74923;HTU21D;64715;44.760;37.678;2024-03-17T05:02:44;13.49;67.51
74923;HTU21D;64715;44.760;37.678;2024-03-17T05:03:45;13.70;67.11
74923;HTU21D;64715;44.760;37.678;2024-03-17T05:04:46;13.90;66.85
74923;HTU21D;64715;44.760;37.678;2024-03-17T05:05:47;14.09;66.63
74923;HTU21D;64715;44.760;37.678;2024-03-17T05:06:48;14.26;66.13
74923;HTU21D;64715;44.760;37.678;2024-03-17T05:07:50;14.41;65.62
74923;HTU21D;64715;44.760;37.678;2024-03-17T05:08:51;14.49;65.26
74923;HTU21D;64715;44.760;37.678;2024-03-17T05:09:52;14.52;64.88
74923;HTU21D;64715;44.760;37.678;2024-03-17T05:11:00;14.48;64.69
74923;HTU21D;64715;44.760;37.678;2024-03-17T05:12:01;14.44;64.54
74923;HTU21D;64715;44.760;37.678;2024-03-17T05:13:02;14.38;64.45
74923;HTU21D;64715;44.760;37.678;2024-03-17T05:14:03;14.28;64.56
74923;HTU21D;64715;44.760;37.678;2024-03-17T05:15:04;14.15;64.64
74923;HTU21D;64715;44.760;37.678;2024-03-17T05:16:06;14.06;64.80
74923;HTU21D;64715;44.760;37.678;2024-03-17T05:17:07;13.96;65.00
74923;HTU21D;64715;44.760;37.678;2024-03-17T05:18:08;13.95;65.19
74923;HTU21D;64715;44.760;37.678;2024-03-17T05:19:09;13.99;65.42
74923;HTU21D;64715;44.760;37.678;2024-03-17T05:20:10;14.11;65.46
74923;HTU21D;64715;44.760;37.678;2024-03-17T05:21:11;14.20;65.08
74923;HTU21D;64715;44.760;37.678;2024-03-17T05:22:12;14.26;64.81
74923;HTU21D;64715;44.760;37.678;2024-03-17T05:23:13;14.30;64.66
74923;HTU21D;64715;44.760;37.678;2024-03-17T05:24:14;14.36;64.69
74923;HTU21D;64715;44.760;37.678;2024-03-17T05:25:15;14.44;64.65
74923;HTU21D;64715;44.760;37.678;2024-03-17T05:26:16;14.52;64.55
74923;HTU21D;64715;44.760;37.678;2024-03-17T05:27:18;14.60;64.64
74923;HTU21D;64715;44.760;37.678;2024-03-17T05:28:19;14.71;64.56
74923;HTU21D;64715;44.760;37.678;2024-03-17T05:29:20;14.82;64.59
74923;HTU21D;64715;44.760;37.678;2024-03-17T05:30:21;14.97;64.31
74923;HTU21D;64715;44.760;37.678;2024-03-17T05:31:22;15.16;64.29
74923;HTU21D;64715;44.760;37.678;2024-03-17T05:32:23;15.38;64.00
74923;HTU21D;64715;44.760;37.678;2024-03-17T05:33:25;15.58;63.65
74923;HTU21D;64715;44.760;37.678;2024-03-17T05:34:26;15.74;63.31
74923;HTU21D;64715;44.760;37.678;2024-03-17T05:35:27;15.86;62.96
74923;HTU21D;64715;44.760;37.678;2024-03-17T05:36:28;15.95;62.75
74923;HTU21D;64715;44.760;37.678;2024-03-17T05:37:33;16.04;62.75
74923;HTU21D;64715;44.760;37.678;2024-03-17T05:38:34;16.11;62.68
74923;HTU21D;64715;44.760;37.678;2024-03-17T05:39:34;16.17;62.65
74923;HTU21D;64715;44.760;37.678;2024-03-17T05:40:35;16.27;62.55
74923;HTU21D;64715;44.760;37.678;2024-03-17T05:41:41;16.41;62.44
74923;HTU21D;64715;44.760;37.678;2024-03-17T05:42:45;16.52;62.29
74923;HTU21D;64715;44.760;37.678;2024-03-17T05:43:46;16.59;61.92
74923;HTU21D;64715;44.760;37.678;2024-03-17T05:44:49;16.65;62.08
74923;HTU21D;64715;44.760;37.678;2024-03-17T05:45:54;16.73;61.98
74923;HTU21D;64715;44.760;37.678;2024-03-17T05:46:57;16.80;62.04
74923;HTU21D;64715;44.760;37.678;2024-03-17T05:47:59;16.85;61.84
74923;HTU21D;64715;44.760;37.678;2024-03-17T05:49:04;16.90;61.80
74923;HTU21D;64715;44.760;37.678;2024-03-17T05:50:08;16.98;61.51
74923;HTU21D;64715;44.760;37.678;2024-03-17T05:51:11;16.94;61.37
74923;HTU21D;64715;44.760;37.678;2024-03-17T05:52:12;16.85;61.32
74923;HTU21D;64715;44.760;37.678;2024-03-17T05:53:13;16.71;61.56
74923;HTU21D;64715;44.760;37.678;2024-03-17T05:54:14;16.59;61.83
74923;HTU21D;64715;44.760;37.678;2024-03-17T05:55:15;16.50;62.03
74923;HTU21D;64715;44.760;37.678;2024-03-17T05:56:17;16.44;62.27
74923;HTU21D;64715;44.760;37.678;2024-03-17T05:57:18;16.41;62.34
74923;HTU21D;64715;44.760;37.678;2024-03-17T05:58:18;16.39;62.29
74923;HTU21D;64715;44.760;37.678;2024-03-17T05:59:19;16.34;62.05
74923;HTU21D;64715;44.760;37.678;2024-03-17T06:00:20;16.31;62.13
74923;HTU21D;64715;44.760;37.678;2024-03-17T06:01:21;16.25;62.10
74923;HTU21D;64715;44.760;37.678;2024-03-17T06:02:23;16.17;62.13
74923;HTU21D;64715;44.760;37.678;2024-03-17T06:03:24;16.10;62.15
74923;HTU21D;64715;44.760;37.678;2024-03-17T06:04:25;16.02;61.91
74923;HTU21D;64715;44.760;37.678;2024-03-17T06:05:25;15.91;62.15
74923;HTU21D;64715;44.760;37.678;2024-03-17T06:06:27;15.89;62.12
74923;HTU21D;64715;44.760;37.678;2024-03-17T06:07:28;15.85;62.12
74923;HTU21D;64715;44.760;37.678;2024-03-17T06:08:29;15.76;62.28
74923;HTU21D;64715;44.760;37.678;2024-03-17T06:09:30;15.72;62.23
74923;HTU21D;64715;44.760;37.678;2024-03-17T06:10:32;15.68;62.35
74923;HTU21D;64715;44.760;37.678;2024-03-17T06:11:33;15.69;62.56
74923;HTU21D;64715;44.760;37.678;2024-03-17T06:12:35;15.71;62.27
74923;HTU21D;64715;44.760;37.678;2024-03-17T06:13:36;15.67;62.15
74923;HTU21D;64715;44.760;37.678;2024-03-17T06:14:38;15.62;62.14
74923;HTU21D;64715;44.760;37.678;2024-03-17T06:15:39;15.53;61.96
74923;HTU21D;64715;44.760;37.678;2024-03-17T06:16:40;15.40;61.68
74923;HTU21D;64715;44.760;37.678;2024-03-17T06:17:42;15.30;61.55
74923;HTU21D;64715;44.760;37.678;2024-03-17T06:18:43;15.23;61.67
74923;HTU21D;64715;44.760;37.678;2024-03-17T06:19:46;15.13;61.34
74923;HTU21D;64715;44.760;37.678;2024-03-17T06:20:48;15.04;61.57
74923;HTU21D;64715;44.760;37.678;2024-03-17T06:21:49;14.99;61.40